Paramount Hamilton — 2CWB2 — position and weather

sailwx.info

Track history (hours):
 
Tides and Currents Weather Stations Pressure Air Temp Water Temp Dewpoint Dewpoint Depression Visibility Wind Speed Wind Dir Waves Ship Positions

Paramount Hamilton

Last reported at 2015-Aug-05 08:21 UTC. Time now 2015-Aug-31 13:24 UTC.
Position N 28°08' W 015°24'.
Warning: this ship's position is 26 days out of date.

Length 250 m; draft 8.5 m.

Type: Tanker. MMSI: 235076274.

Date/timePositionNaut miles runAvg speedWind from/ knotsBaromVisibWave heightAir tempDewpointWater temp
2015-Aug-05 08:21N 28°08' W 015°24'0 0.0
2015-Aug-05 07:27N 28°08' W 015°23'0 0.0
2015-Aug-05 06:27N 28°08' W 015°24'0 0.0
2015-Aug-05 05:27N 28°08' W 015°23'0 0.0
2015-Aug-05 04:30N 28°08' W 015°24'0 0.1
2015-Aug-05 03:30N 28°08' W 015°24'0 0.0
2015-Aug-05 02:30N 28°08' W 015°24'0 0.1
2015-Aug-05 01:33N 28°08' W 015°24'0 0.1
2015-Aug-05 00:33N 28°08' W 015°23'0 0.0
2015-Aug-04 23:33N 28°08' W 015°23'0 0.0
2015-Aug-04 22:33N 28°08' W 015°23'0 0.1
2015-Aug-04 21:33N 28°08' W 015°24'0 0.0
2015-Aug-04 20:33N 28°08' W 015°24'0 0.1
2015-Aug-04 19:33N 28°08' W 015°23'0 0.0
2015-Aug-04 18:24N 28°08' W 015°23'0 0.0
2015-Aug-04 17:27N 28°08' W 015°23'0 0.0
2015-Aug-04 16:27N 28°08' W 015°24'0 0.0
2015-Aug-04 15:27N 28°08' W 015°23'0 0.0
2015-Aug-04 14:30N 28°08' W 015°23'0 0.1
2015-Aug-04 13:30N 28°08' W 015°24'0 0.0
2015-Aug-04 12:30N 28°08' W 015°23'0 0.0
2015-Aug-04 11:33N 28°08' W 015°23'0 0.0
2015-Aug-04 10:33N 28°08' W 015°23'0 0.1
2015-Aug-04 09:33N 28°08' W 015°24'0 0.0
2015-Aug-04 08:33N 28°08' W 015°24'0 0.0
2015-Aug-04 07:33N 28°08' W 015°24'0 0.0
2015-Aug-04 06:33N 28°08' W 015°24'0 0.0
2015-Aug-04 05:24N 28°08' W 015°24'0 0.0
2015-Aug-04 04:24N 28°08' W 015°23'0 0.0
2015-Aug-04 03:27N 28°08' W 015°23'0 0.0
2015-Aug-04 02:27N 28°08' W 015°24'0 0.0
2015-Aug-04 01:27N 28°08' W 015°24'0 0.0
2015-Aug-04 00:30N 28°08' W 015°24'0 0.0
2015-Aug-03 23:30N 28°08' W 015°24'0 0.1
2015-Aug-03 22:33N 28°08' W 015°23'0 0.0
2015-Aug-03 21:33N 28°08' W 015°23'0 0.0
2015-Aug-03 20:33N 28°08' W 015°24'0 0.0
2015-Aug-03 19:33N 28°08' W 015°24'0 0.0
2015-Aug-03 18:33N 28°08' W 015°24'0 0.0
2015-Aug-03 17:33N 28°08' W 015°24'0 0.0
2015-Aug-03 16:33N 28°08' W 015°23'0 0.0
2015-Aug-03 15:24N 28°08' W 015°24'0 0.1
2015-Aug-03 14:24N 28°08' W 015°23'0 0.0
2015-Aug-03 13:27N 28°08' W 015°24'0 0.1
2015-Aug-03 12:27N 28°08' W 015°23'0 0.0
2015-Aug-03 11:27N 28°08' W 015°23'0 0.1
2015-Aug-03 10:30N 28°08' W 015°23'0 0.2
2015-Aug-03 09:30N 28°08' W 015°24'0 0.0
2015-Aug-03 08:30N 28°08' W 015°24'0 0.0
2015-Aug-03 07:33N 28°08' W 015°23'0 0.1
2015-Aug-03 06:33N 28°08' W 015°23'0 0.1
2015-Aug-03 05:33N 28°08' W 015°23'1 0.7
2015-Aug-03 04:34N 28°08' W 015°23'8 7.8
2015-Aug-03 03:34N 28°13' W 015°16'1212.4
2015-Aug-03 02:34N 28°25' W 015°13'1414.1
2015-Aug-03 01:33N 28°38' W 015°08'1414.1
2015-Aug-03 00:33N 28°52' W 015°03'1413.9
2015-Aug-02 23:32N 29°05' W 014°59'1814.1
2015-Aug-02 22:15N 29°23' W 014°54'1414.1
2015-Aug-02 21:15N 29°36' W 014°50'1014.0
2015-Aug-02 20:31N 29°46' W 014°47'1413.6
2015-Aug-02 19:29N 30°00' W 014°43'1813.5
2015-Aug-02 18:08N 30°18' W 014°40'3 1.9
2015-Aug-02 16:27N 30°21' W 014°39'1 1.1
2015-Aug-02 15:21N 30°22' W 014°39'1 1.1
2015-Aug-02 14:16N 30°23' W 014°40'1 0.9
2015-Aug-02 13:33N 30°24' W 014°40'1 0.6
2015-Aug-02 12:33N 30°24' W 014°40'1 0.6
2015-Aug-02 11:33N 30°25' W 014°41'1 0.7
2015-Aug-02 10:33N 30°26' W 014°41'  
2015-Jul-30 00:19N 44°02' W 006°04'1113.3
2015-Jul-29 23:27N 43°60' W 005°49'2513.3
2015-Jul-29 21:32N 43°55' W 005°14'  
2015-Jul-27 10:27N 46°29' W 004°57'1413.9
2015-Jul-27 09:28N 46°41' W 005°05'1913.7
2015-Jul-27 08:05N 46°59' W 005°15'19710.1
2015-Jul-26 12:30N 50°05' W 003°39'1010.7
2015-Jul-26 11:33N 50°11' W 003°26'1211.6
2015-Jul-26 10:34N 50°23' W 003°23'5 4.6
2015-Jul-26 09:33N 50°27' W 003°20'1313.2
2015-Jul-26 08:33N 50°27' W 002°59'  
Track history (hours):
 
Tides and Currents Weather Stations Pressure Air Temp Water Temp Dewpoint Dewpoint Depression Visibility Wind Speed Wind Dir Waves Ship Positions

Paramount Hamilton

Last reported at 2015-Aug-05 08:21 UTC. Time now 2015-Aug-31 13:24 UTC.
Position N 28°08' W 015°24'.
Warning: this ship's position is 26 days out of date.

Length 250 m; draft 8.5 m.

Type: Tanker. MMSI: 235076274.

Date/timePositionNaut miles runAvg speedWind from/ knotsBaromVisibWave heightAir tempDewpointWater temp
2015-Aug-05 08:21N 28°08' W 015°24'0 0.0
2015-Aug-05 07:27N 28°08' W 015°23'0 0.0
2015-Aug-05 06:27N 28°08' W 015°24'0 0.0
2015-Aug-05 05:27N 28°08' W 015°23'0 0.0
2015-Aug-05 04:30N 28°08' W 015°24'0 0.1
2015-Aug-05 03:30N 28°08' W 015°24'0 0.0
2015-Aug-05 02:30N 28°08' W 015°24'0 0.1
2015-Aug-05 01:33N 28°08' W 015°24'0 0.1
2015-Aug-05 00:33N 28°08' W 015°23'0 0.0
2015-Aug-04 23:33N 28°08' W 015°23'0 0.0
2015-Aug-04 22:33N 28°08' W 015°23'0 0.1
2015-Aug-04 21:33N 28°08' W 015°24'0 0.0
2015-Aug-04 20:33N 28°08' W 015°24'0 0.1
2015-Aug-04 19:33N 28°08' W 015°23'0 0.0
2015-Aug-04 18:24N 28°08' W 015°23'0 0.0
2015-Aug-04 17:27N 28°08' W 015°23'0 0.0
2015-Aug-04 16:27N 28°08' W 015°24'0 0.0
2015-Aug-04 15:27N 28°08' W 015°23'0 0.0
2015-Aug-04 14:30N 28°08' W 015°23'0 0.1
2015-Aug-04 13:30N 28°08' W 015°24'0 0.0
2015-Aug-04 12:30N 28°08' W 015°23'0 0.0
2015-Aug-04 11:33N 28°08' W 015°23'0 0.0
2015-Aug-04 10:33N 28°08' W 015°23'0 0.1
2015-Aug-04 09:33N 28°08' W 015°24'0 0.0
2015-Aug-04 08:33N 28°08' W 015°24'0 0.0
2015-Aug-04 07:33N 28°08' W 015°24'0 0.0
2015-Aug-04 06:33N 28°08' W 015°24'0 0.0
2015-Aug-04 05:24N 28°08' W 015°24'0 0.0
2015-Aug-04 04:24N 28°08' W 015°23'0 0.0
2015-Aug-04 03:27N 28°08' W 015°23'0 0.0
2015-Aug-04 02:27N 28°08' W 015°24'0 0.0
2015-Aug-04 01:27N 28°08' W 015°24'0 0.0
2015-Aug-04 00:30N 28°08' W 015°24'0 0.0
2015-Aug-03 23:30N 28°08' W 015°24'0 0.1
2015-Aug-03 22:33N 28°08' W 015°23'0 0.0
2015-Aug-03 21:33N 28°08' W 015°23'0 0.0
2015-Aug-03 20:33N 28°08' W 015°24'0 0.0
2015-Aug-03 19:33N 28°08' W 015°24'0 0.0
2015-Aug-03 18:33N 28°08' W 015°24'0 0.0
2015-Aug-03 17:33N 28°08' W 015°24'0 0.0
2015-Aug-03 16:33N 28°08' W 015°23'0 0.0
2015-Aug-03 15:24N 28°08' W 015°24'0 0.1
2015-Aug-03 14:24N 28°08' W 015°23'0 0.0
2015-Aug-03 13:27N 28°08' W 015°24'0 0.1
2015-Aug-03 12:27N 28°08' W 015°23'0 0.0
2015-Aug-03 11:27N 28°08' W 015°23'0 0.1
2015-Aug-03 10:30N 28°08' W 015°23'0 0.2
2015-Aug-03 09:30N 28°08' W 015°24'0 0.0
2015-Aug-03 08:30N 28°08' W 015°24'0 0.0
2015-Aug-03 07:33N 28°08' W 015°23'0 0.1
2015-Aug-03 06:33N 28°08' W 015°23'0 0.1
2015-Aug-03 05:33N 28°08' W 015°23'1 0.7
2015-Aug-03 04:34N 28°08' W 015°23'8 7.8
2015-Aug-03 03:34N 28°13' W 015°16'1212.4
2015-Aug-03 02:34N 28°25' W 015°13'1414.1
2015-Aug-03 01:33N 28°38' W 015°08'1414.1
2015-Aug-03 00:33N 28°52' W 015°03'1413.9
2015-Aug-02 23:32N 29°05' W 014°59'1814.1
2015-Aug-02 22:15N 29°23' W 014°54'1414.1
2015-Aug-02 21:15N 29°36' W 014°50'1014.0
2015-Aug-02 20:31N 29°46' W 014°47'1413.6
2015-Aug-02 19:29N 30°00' W 014°43'1813.5
2015-Aug-02 18:08N 30°18' W 014°40'3 1.9
2015-Aug-02 16:27N 30°21' W 014°39'1 1.1
2015-Aug-02 15:21N 30°22' W 014°39'1 1.1
2015-Aug-02 14:16N 30°23' W 014°40'1 0.9
2015-Aug-02 13:33N 30°24' W 014°40'1 0.6
2015-Aug-02 12:33N 30°24' W 014°40'1 0.6
2015-Aug-02 11:33N 30°25' W 014°41'1 0.7
2015-Aug-02 10:33N 30°26' W 014°41'  
2015-Jul-30 00:19N 44°02' W 006°04'1113.3
2015-Jul-29 23:27N 43°60' W 005°49'2513.3
2015-Jul-29 21:32N 43°55' W 005°14'  
2015-Jul-27 10:27N 46°29' W 004°57'1413.9
2015-Jul-27 09:28N 46°41' W 005°05'1913.7
2015-Jul-27 08:05N 46°59' W 005°15'19710.1
2015-Jul-26 12:30N 50°05' W 003°39'1010.7
2015-Jul-26 11:33N 50°11' W 003°26'1211.6
2015-Jul-26 10:34N 50°23' W 003°23'5 4.6
2015-Jul-26 09:33N 50°27' W 003°20'1313.2
2015-Jul-26 08:33N 50°27' W 002°59'  

Dump ship's entire track history